Map

Track Data

SID SEASON NUMBER BASIN SUBBASIN NAME ISO_TIME NATURE LAT LON WMO_WIND WMO_PRES WMO_AGENCY TRACK_TYPE DIST2LAND LANDFALL IFLAG USA_AGENCY USA_ATCF_ID USA_LAT USA_LON USA_RECORD USA_STATUS USA_WIND USA_PRES USA_SSHS USA_R34_NE USA_R34_SE USA_R34_SW USA_R34_NW USA_R50_NE USA_R50_SE USA_R50_SW USA_R50_NW USA_R64_NE USA_R64_SE USA_R64_SW USA_R64_NW USA_POCI USA_ROCI USA_RMW USA_EYE TOKYO_LAT TOKYO_LON TOKYO_GRADE TOKYO_WIND TOKYO_PRES TOKYO_R50_DIR TOKYO_R50_LONG TOKYO_R50_SHORT TOKYO_R30_DIR TOKYO_R30_LONG TOKYO_R30_SHORT TOKYO_LAND CMA_LAT CMA_LON CMA_CAT CMA_WIND CMA_PRES HKO_LAT HKO_LON HKO_CAT HKO_WIND HKO_PRES NEWDELHI_LAT NEWDELHI_LON NEWDELHI_GRADE NEWDELHI_WIND NEWDELHI_PRES NEWDELHI_CI NEWDELHI_DP NEWDELHI_POCI REUNION_LAT REUNION_LON REUNION_TYPE REUNION_WIND REUNION_PRES REUNION_TNUM REUNION_CI REUNION_RMW REUNION_R34_NE REUNION_R34_SE REUNION_R34_SW REUNION_R34_NW REUNION_R50_NE REUNION_R50_SE REUNION_R50_SW REUNION_R50_NW REUNION_R64_NE REUNION_R64_SE REUNION_R64_SW REUNION_R64_NW BOM_LAT BOM_LON BOM_TYPE BOM_WIND BOM_PRES BOM_TNUM BOM_CI BOM_RMW BOM_R34_NE BOM_R34_SE BOM_R34_SW BOM_R34_NW BOM_R50_NE BOM_R50_SE BOM_R50_SW BOM_R50_NW BOM_R64_NE BOM_R64_SE BOM_R64_SW BOM_R64_NW BOM_ROCI BOM_POCI BOM_EYE BOM_POS_METHOD BOM_PRES_METHOD NADI_LAT NADI_LON NADI_CAT NADI_WIND NADI_PRES WELLINGTON_LAT WELLINGTON_LON WELLINGTON_WIND WELLINGTON_PRES DS824_LAT DS824_LON DS824_STAGE DS824_WIND DS824_PRES TD9636_LAT TD9636_LON TD9636_STAGE TD9636_WIND TD9636_PRES TD9635_LAT TD9635_LON TD9635_WIND TD9635_PRES TD9635_ROCI NEUMANN_LAT NEUMANN_LON NEUMANN_CLASS NEUMANN_WIND NEUMANN_PRES MLC_LAT MLC_LON MLC_CLASS MLC_WIND MLC_PRES USA_GUST BOM_GUST BOM_GUST_PER REUNION_GUST REUNION_GUST_PER USA_SEAHGT USA_SEARAD_NE USA_SEARAD_SE USA_SEARAD_SW USA_SEARAD_NW STORM_SPEED STORM_DIR
1957231N20091 1957 45 NI BB NOT_NAMED 1957-08-18 18:00:00 TS 19.5000 91.0000 main 198 198 O________O____ jtwc_io IO021957 19.5000 91.0000 -1 19.5000 91.0000 TC 1 270
1957231N20091 1957 45 NI BB NOT_NAMED 1957-08-18 21:00:00 TS 19.5000 90.9300 main 206 206 P________P____ IO021957 19.5000 90.9300 -1 19.5000 90.9300 TC 2 270
1957231N20091 1957 45 NI BB NOT_NAMED 1957-08-19 00:00:00 TS 19.5000 90.8000 main 214 214 O________O____ jtwc_io IO021957 19.5000 90.8000 -1 19.5000 90.8000 TC 25 3 270
1957231N20091 1957 45 NI BB NOT_NAMED 1957-08-19 03:00:00 TS 19.5000 90.5756 main 230 230 P________PO___ IO021957 19.5000 90.5725 -1 19.5000 90.5725 TC 25 19.5000 90.6000 1 5 270
1957231N20091 1957 45 NI BB NOT_NAMED 1957-08-19 06:00:00 TS 19.5004 90.3038 main 257 256 O________OP___ jtwc_io IO021957 19.5000 90.3000 -1 19.5000 90.3000 TC 25 19.5019 90.3188 1 5 270
1957231N20091 1957 45 NI BB NOT_NAMED 1957-08-19 09:00:00 TS 19.5007 90.0473 main 252 245 P________PP___ IO021957 19.5000 90.0500 -1 19.5000 90.0500 TC 25 19.5028 90.0400 1 5 270
1957231N20091 1957 45 NI BB NOT_NAMED 1957-08-19 12:00:00 TS 19.5008 89.7888 main 245 238 O________OP___ jtwc_io IO021957 19.5000 89.8000 -1 19.5000 89.8000 TC 25 19.5024 89.7663 1 5 270
1957231N20091 1957 45 NI BB NOT_NAMED 1957-08-19 15:00:00 TS 19.5000 89.5333 main 238 235 P________PO___ IO021957 19.5000 89.5500 -1 19.5000 89.5500 TC 25 19.5000 89.5000 1 5 270
1957231N20091 1957 45 NI BB NOT_NAMED 1957-08-19 18:00:00 TS 19.4986 89.2815 main 235 234 O________OP___ jtwc_io IO021957 19.5000 89.3000 -1 19.5000 89.3000 TC 25 19.4959 89.2444 1 5 270
1957231N20091 1957 45 NI BB NOT_NAMED 1957-08-19 21:00:00 TS 19.4975 89.0300 main 234 230 P________PP___ IO021957 19.5000 89.0425 -1 19.5000 89.0425 TC 25 19.4925 89.0050 1 5 270
1957231N20091 1957 45 NI BB NOT_NAMED 1957-08-20 00:00:00 TS 19.4976 88.7960 main 230 214 O________OP___ jtwc_io IO021957 19.5000 88.8000 -1 19.5000 88.8000 TC 25 19.4928 88.7881 1 4 270
1957231N20091 1957 45 NI BB NOT_NAMED 1957-08-20 03:00:00 TS 19.4950 88.5850 main 214 198 P________PO___ IO021957 19.4925 88.5775 -1 19.4925 88.5775 TC 25 19.5000 88.6000 1 4 272
1957231N20091 1957 45 NI BB NOT_NAMED 1957-08-20 06:00:00 TS 19.5073 88.4114 main 198 189 O________OP___ jtwc_io IO021957 19.5000 88.4000 -1 19.5000 88.4000 TC 25 19.5218 88.4341 1 3 281
1957231N20091 1957 45 NI BB NOT_NAMED 1957-08-20 09:00:00 TS 19.5499 88.2842 main 189 175 P________PP___ IO021957 19.5500 88.2775 -1 19.5500 88.2775 TC 25 19.5499 88.2976 1 2 293
1957231N20091 1957 45 NI BB NOT_NAMED 1957-08-20 12:00:00 TS 19.5927 88.1957 main 175 165 O________OP___ jtwc_io IO021957 19.6000 88.2000 -1 19.6000 88.2000 TC 25 19.5781 88.1872 1 2 290
1957231N20091 1957 45 NI BB NOT_NAMED 1957-08-20 15:00:00 TS 19.6050 88.1233 main 165 165 P________PO___ IO021957 19.6075 88.1350 -1 19.6075 88.1350 TC 25 19.6000 88.1000 1 1 274
1957231N20091 1957 45 NI BB NOT_NAMED 1957-08-20 18:00:00 TS 19.5995 88.0964 main 165 165 O________OP___ jtwc_io IO021957 19.6000 88.1000 -1 19.6000 88.1000 TC 25 19.5986 88.0892 1 0 0
1957231N20091 1957 45 NI BB NOT_NAMED 1957-08-20 21:00:00 TS 19.5972 88.1216 main 165 165 P________PP___ IO021957 19.5999 88.1375 -1 19.5999 88.1375 TC 30 19.5918 88.0898 1 0 0
1957231N20091 1957 45 NI BB NOT_NAMED 1957-08-21 00:00:00 TS 19.5963 88.0818 main 165 147 O________OP___ jtwc_io IO021957 19.6000 88.1000 -1 19.6000 88.1000 TC 35 19.5890 88.0454 1 2 269
1957231N20091 1957 45 NI BB NOT_NAMED 1957-08-21 03:00:00 TS 19.5950 87.8783 main 147 122 P________PO___ IO021957 19.5925 87.8674 -1 19.5925 87.8674 TC 35 19.6000 87.9000 2 5 272
1957231N20091 1957 45 NI BB NOT_NAMED 1957-08-21 06:00:00 TS 19.6107 87.5276 main 114 85 O________OP___ jtwc_io IO021957 19.6000 87.5000 -1 19.6000 87.5000 TC 35 19.6321 87.5828 2 7 274
1957231N20091 1957 45 NI BB NOT_NAMED 1957-08-21 09:00:00 TS 19.6495 87.0975 main 85 45 P________PP___ IO021957 19.6351 87.0650 -1 19.6351 87.0650 TC 35 19.6782 87.1625 2 9 277
1957231N20091 1957 45 NI BB NOT_NAMED 1957-08-21 12:00:00 TS 19.7117 86.6286 main 39 15 O________OP___ jtwc_io IO021957 19.7000 86.6000 -1 19.7000 86.6000 TC 35 19.7351 86.6859 2 9 280
1957231N20091 1957 45 NI BB NOT_NAMED 1957-08-21 15:00:00 TS 19.7999 86.2000 main 15 0 P________PO___ IO021957 19.7998 86.2000 -1 19.7998 86.2000 TC 35 19.8000 86.2000 3 8 282
1957231N20091 1957 45 NI BB NOT_NAMED 1957-08-21 18:00:00 TS 19.8788 85.8276 main 0 0 O________OP___ jtwc_io IO021957 19.9000 85.8000 -1 19.9000 85.8000 TC 35 19.8364 85.8829 3 7 280
1957231N20091 1957 45 NI BB NOT_NAMED 1957-08-21 21:00:00 TS 19.9283 85.4314 main 0 0 P________PP___ IO021957 19.9498 85.3723 -1 19.9498 85.3723 TC 35 19.8851 85.5495 3 8 278
1957231N20091 1957 45 NI BB NOT_NAMED 1957-08-22 00:00:00 TS 19.9888 84.9722 main 0 0 O________OP___ jtwc_io IO021957 20.0000 84.9000 -1 20.0000 84.9000 TC 35 19.9665 85.1165 3 9 279
1957231N20091 1957 45 NI BB NOT_NAMED 1957-08-22 03:00:00 TS 20.0740 84.4794 main 0 0 P________PO___ IO021957 20.0610 84.4691 -1 20.0610 84.4691 TC 35 20.1000 84.5000 3 12 281
1957231N20091 1957 45 NI BB NOT_NAMED 1957-08-22 06:00:00 TS 20.2264 83.7206 main 0 0 O________OP___ jtwc_io IO021957 20.2000 83.8000 -1 20.2000 83.8000 TC 35 20.2792 83.5619 3 18 283
1957231N20091 1957 45 NI BB NOT_NAMED 1957-08-22 09:00:00 TS 20.4786 82.5694 main 0 0 P________PP___ IO021957 20.4639 82.6329 -1 20.4639 82.6329 TC 30 20.5080 82.4424 3 24 284
1957231N20091 1957 45 NI BB NOT_NAMED 1957-08-22 12:00:00 TS 20.7941 81.2839 main 0 0 O________OP___ jtwc_io IO021957 20.8000 81.3000 -1 20.8000 81.3000 TC 25 20.7822 81.2517 3 24 286
1957231N20091 1957 45 NI BB NOT_NAMED 1957-08-22 15:00:00 TS 21.1228 80.1364 main 0 0 P________PO___ IO021957 21.1342 80.1546 -1 21.1342 80.1546 TC 25 21.1000 80.1000 1 22 289
1957231N20091 1957 45 NI BB NOT_NAMED 1957-08-22 18:00:00 TS 21.4882 79.0850 main 0 0 O________OP___ jtwc_io IO021957 21.5000 79.1000 -1 21.5000 79.1000 TC 25 21.4645 79.0551 1 21 292
1957231N20091 1957 45 NI BB NOT_NAMED 1957-08-22 21:00:00 TS 21.8899 78.0760 main 0 0 P________PP___ IO021957 21.8998 78.0751 -1 21.8998 78.0751 TC 25 21.8700 78.0779 1 19 295
1957231N20091 1957 45 NI AS NOT_NAMED 1957-08-23 00:00:00 TS 22.2968 77.2038 main 0 0 O________OP___ jtwc_io IO021957 22.3000 77.2000 -1 22.3000 77.2000 TC 25 22.2904 77.2114 1 17 298
1957231N20091 1957 45 NI AS NOT_NAMED 1957-08-23 03:00:00 TS 22.6713 76.5014 main 0 0 P________PO___ IO021957 22.6570 76.5021 -1 22.6570 76.5021 TC 25 22.7000 76.5000 1 13 303
1957231N20091 1957 45 NI AS NOT_NAMED 1957-08-23 06:00:00 TS 23.0205 75.9911 main 0 0 O________OP___ jtwc_io IO021957 23.0000 76.0000 -1 23.0000 76.0000 TC 25 23.0614 75.9733 1 11 311
1957231N20091 1957 45 NI AS NOT_NAMED 1957-08-23 09:00:00 TS 23.3702 75.6370 main 0 0 P________PP___ IO021957 23.3496 75.6545 -1 23.3496 75.6545 TC 25 23.4115 75.6021 1 9 321
1957231N20091 1957 45 NI AS NOT_NAMED 1957-08-23 12:00:00 TS 23.7187 75.3767 main 0 0 O________OP___ jtwc_io IO021957 23.7000 75.4000 -1 23.7000 75.4000 TC 25 23.7560 75.3300 1 9 325
1957231N20091 1957 45 NI AS NOT_NAMED 1957-08-23 15:00:00 TS 24.0667 75.0949 main 0 0 P________PO___ IO021957 24.0500 75.0924 -1 24.0500 75.0924 TC 25 24.1000 75.1000 1 9 323
1957231N20091 1957 45 NI AS NOT_NAMED 1957-08-23 18:00:00 TS 24.4085 74.8027 main 0 0 O________OP___ jtwc_io IO021957 24.4000 74.8000 -1 24.4000 74.8000 TC 25 24.4254 74.8082 1 8 323
1957231N20091 1957 45 NI AS NOT_NAMED 1957-08-23 21:00:00 TS 24.7415 74.5387 main 0 0 P________PP___ IO021957 24.7350 74.5348 -1 24.7350 74.5348 TC 25 24.7547 74.5464 1 8 327
1957231N20091 1957 45 NI AS NOT_NAMED 1957-08-24 00:00:00 TS 25.1022 74.3038 main 0 0 O________OP___ jtwc_io IO021957 25.1000 74.3000 -1 25.1000 74.3000 TC 25 25.1067 74.3114 1 9 333
1957231N20091 1957 45 NI AS NOT_NAMED 1957-08-24 03:00:00 TS 25.5183 74.0949 main 0 0 P________PO___ IO021957 25.5274 74.0923 -1 25.5274 74.0923 TC 25 25.5000 74.1000 1 10 338
1957231N20091 1957 45 NI AS NOT_NAMED 1957-08-24 06:00:00 TS 25.9856 73.8971 main 0 0 O________OP___ jtwc_io IO021957 26.0000 73.9000 -1 26.0000 73.9000 TC 25 25.9568 73.8912 1 10 339
1957231N20091 1957 45 NI AS NOT_NAMED 1957-08-24 09:00:00 TS 26.4800 73.6917 main 0 0 P________PP___ IO021957 26.4925 73.6851 -1 26.4925 73.6851 TC 25 26.4549 73.7050 1 11 341
1957231N20091 1957 45 NI AS NOT_NAMED 1957-08-24 12:00:00 TS 26.9919 73.5137 main 0 0 O________OP___ jtwc_io IO021957 27.0000 73.5000 -1 27.0000 73.5000 TC 25 26.9756 73.5412 1 11 345
1957231N20091 1957 45 NI AS NOT_NAMED 1957-08-24 15:00:00 TS 27.5000 73.3898 main 0 0 P________PO___ IO021957 27.4999 73.3847 -1 27.4999 73.3847 TC 25 27.5000 73.4000 1 10 349
1957231N20091 1957 45 NI AS NOT_NAMED 1957-08-24 18:00:00 TS 28.0052 73.2922 main 0 0 O________OP___ jtwc_io IO021957 28.0000 73.3000 -1 28.0000 73.3000 TC 25 28.0131 73.2804 1 10 350
1957231N20091 1957 45 NI AS NOT_NAMED 1957-08-24 21:00:00 TS 28.5064 73.1935 main 0 0 P________PP___ IO021957 28.5000 73.2053 -1 28.5000 73.2053 TC 25 28.5150 73.1778 1 10 350
1957231N20091 1957 45 NI AS NOT_NAMED 1957-08-25 00:00:00 TS 29.0047 73.0931 main 0 0 O________OP___ jtwc_io IO021957 29.0000 73.1000 -1 29.0000 73.1000 TC 25 29.0094 73.0863 1 10 350
1957231N20091 1957 45 NI AS NOT_NAMED 1957-08-25 03:00:00 NR 29.5000 73.0000 main 0 __________O___ IO021957 -1 TC 29.5000 73.0000 1 10 351

About IBTrACS Database

This database is a web-friendly format of International Best Track Archive for Climate Stewardship (IBTrACS), a global best track data archive curated by NOAA dating back to 1842.

Updated: 2021-12-03